N293G KLUK-KCLE
Flight info
| Callsign | N293G |
|---|---|
| Flight time | N/A |
| Altitude | 3500 |
| Route | VFR NB |
| Aircraft | A109/L-VGD/C |
Departure
| Time | 2026-04-28 17:00 |
|---|---|
| Airport | Cincinnati Municipal Airport Lunken Field (KLUK) |
Arrival
| Time | N/A |
|---|---|
| Airport | Cleveland Hopkins International Airport (KCLE) |
| Time | Latitude | Longitude | Altitude | Speed | Heading |
|---|---|---|---|---|---|
| 2026-04-28 16:48 | 39.11137 | -84.41882 | 476 ft | 0 kts | 117° |
| 2026-04-28 16:59 | 39.11136 | -84.41878 | 476 ft | 1 kts | 117° |
| 2026-04-28 16:59 | 39.11134 | -84.41841 | 530 ft | 12 kts | 89° |
| 2026-04-28 16:59 | 39.11191 | -84.41651 | 700 ft | 38 kts | 64° |
| 2026-04-28 16:59 | 39.11391 | -84.41257 | 993 ft | 67 kts | 45° |
| 2026-04-28 17:00 | 39.11763 | -84.40766 | 1233 ft | 85 kts | 48° |
| 2026-04-28 17:00 | 39.12242 | -84.40207 | 1475 ft | 97 kts | 39° |
| 2026-04-28 17:00 | 39.12723 | -84.39643 | 1829 ft | 93 kts | 37° |
| 2026-04-28 17:00 | 39.13180 | -84.39060 | 1954 ft | 101 kts | 45° |
| 2026-04-28 17:01 | 39.13744 | -84.38333 | 2108 ft | 129 kts | 41° |
| 2026-04-28 17:01 | 39.14449 | -84.37462 | 2198 ft | 154 kts | 39° |
| 2026-04-28 17:01 | 39.15291 | -84.36473 | 2255 ft | 168 kts | 39° |
| 2026-04-28 17:01 | 39.16163 | -84.35424 | 2354 ft | 175 kts | 40° |
| 2026-04-28 17:02 | 39.17103 | -84.34398 | 2495 ft | 174 kts | 34° |
| 2026-04-28 17:02 | 39.17736 | -84.33741 | 2567 ft | 176 kts | 36° |
| 2026-04-28 17:02 | 39.19015 | -84.32378 | 2694 ft | 179 kts | 37° |
| 2026-04-28 17:02 | 39.19973 | -84.31352 | 2842 ft | 178 kts | 37° |
| 2026-04-28 17:03 | 39.21869 | -84.29328 | 3141 ft | 177 kts | 36° |
| 2026-04-28 17:03 | 39.22823 | -84.28320 | 3291 ft | 177 kts | 36° |
| 2026-04-28 17:03 | 39.23776 | -84.27294 | 3405 ft | 178 kts | 35° |
| 2026-04-28 17:04 | 39.25742 | -84.25207 | 3477 ft | 186 kts | 35° |
| 2026-04-28 17:04 | 39.26743 | -84.24136 | 3494 ft | 186 kts | 34° |
| 2026-04-28 17:05 | 39.28744 | -84.21997 | 3497 ft | 187 kts | 35° |
| 2026-04-28 17:05 | 39.29756 | -84.20924 | 3498 ft | 186 kts | 34° |
| 2026-04-28 17:05 | 39.30743 | -84.19863 | 3492 ft | 186 kts | 35° |
| 2026-04-28 17:06 | 39.32751 | -84.17731 | 3497 ft | 186 kts | 35° |
| 2026-04-28 17:06 | 39.33744 | -84.16659 | 3495 ft | 186 kts | 35° |
| 2026-04-28 17:06 | 39.35748 | -84.14522 | 3491 ft | 186 kts | 36° |
| 2026-04-28 17:07 | 39.36750 | -84.13453 | 3491 ft | 186 kts | 34° |
| 2026-04-28 17:07 | 39.37741 | -84.12390 | 3490 ft | 185 kts | 35° |
| 2026-04-28 17:07 | 39.38738 | -84.11330 | 3489 ft | 184 kts | 36° |
| 2026-04-28 17:07 | 39.39730 | -84.10264 | 3488 ft | 184 kts | 36° |
| 2026-04-28 17:08 | 39.40712 | -84.09215 | 3491 ft | 185 kts | 35° |
| 2026-04-28 17:08 | 39.41701 | -84.08145 | 3490 ft | 185 kts | 34° |
| 2026-04-28 17:08 | 39.42699 | -84.07073 | 3494 ft | 185 kts | 34° |
| 2026-04-28 17:08 | 39.43691 | -84.06007 | 3490 ft | 186 kts | 35° |
| 2026-04-28 17:09 | 39.44693 | -84.04942 | 3494 ft | 185 kts | 35° |
| 2026-04-28 17:09 | 39.45680 | -84.03872 | 3490 ft | 185 kts | 35° |
| 2026-04-28 17:09 | 39.46674 | -84.02804 | 3488 ft | 187 kts | 34° |
| 2026-04-28 17:09 | 39.47670 | -84.01743 | 3493 ft | 186 kts | 34° |
| 2026-04-28 17:10 | 39.48674 | -84.00661 | 3492 ft | 186 kts | 34° |
| 2026-04-28 17:10 | 39.49663 | -83.99596 | 3487 ft | 186 kts | 34° |
| 2026-04-28 17:10 | 39.50659 | -83.98525 | 3492 ft | 186 kts | 35° |
| 2026-04-28 17:10 | 39.51657 | -83.97451 | 3490 ft | 186 kts | 35° |
| 2026-04-28 17:11 | 39.52663 | -83.96373 | 3489 ft | 186 kts | 35° |
| 2026-04-28 17:11 | 39.53657 | -83.95306 | 3490 ft | 185 kts | 35° |
| 2026-04-28 17:11 | 39.54644 | -83.94237 | 3488 ft | 185 kts | 36° |
| 2026-04-28 17:11 | 39.55634 | -83.93175 | 3493 ft | 186 kts | 34° |
| 2026-04-28 17:12 | 39.56628 | -83.92104 | 3490 ft | 186 kts | 36° |
| 2026-04-28 17:12 | 39.57624 | -83.91026 | 3490 ft | 185 kts | 35° |
| 2026-04-28 17:12 | 39.58617 | -83.89958 | 3490 ft | 184 kts | 35° |
| 2026-04-28 17:12 | 39.59593 | -83.88898 | 3487 ft | 184 kts | 36° |
| 2026-04-28 17:13 | 39.60587 | -83.87833 | 3485 ft | 185 kts | 35° |
| 2026-04-28 17:13 | 39.61573 | -83.86762 | 3485 ft | 184 kts | 35° |
| 2026-04-28 17:13 | 39.62547 | -83.85709 | 3479 ft | 184 kts | 35° |
| 2026-04-28 17:13 | 39.63547 | -83.84624 | 3482 ft | 185 kts | 35° |
| 2026-04-28 17:14 | 39.64528 | -83.83563 | 3483 ft | 184 kts | 34° |
| 2026-04-28 17:14 | 39.65524 | -83.82491 | 3481 ft | 185 kts | 34° |
| 2026-04-28 17:14 | 39.66511 | -83.81422 | 3483 ft | 185 kts | 34° |
| 2026-04-28 17:14 | 39.67501 | -83.80347 | 3479 ft | 187 kts | 35° |
| 2026-04-28 17:15 | 39.68502 | -83.79270 | 3482 ft | 186 kts | 35° |
| 2026-04-28 17:15 | 39.69506 | -83.78186 | 3480 ft | 186 kts | 35° |
| 2026-04-28 17:15 | 39.70486 | -83.77115 | 3479 ft | 185 kts | 35° |
| 2026-04-28 17:15 | 39.71489 | -83.76032 | 3477 ft | 186 kts | 35° |
| 2026-04-28 17:16 | 39.72476 | -83.74963 | 3480 ft | 186 kts | 35° |
| 2026-04-28 17:16 | 39.73475 | -83.73878 | 3480 ft | 185 kts | 34° |
| 2026-04-28 17:16 | 39.74454 | -83.72810 | 3475 ft | 185 kts | 36° |
| 2026-04-28 17:16 | 39.75447 | -83.71729 | 3480 ft | 185 kts | 34° |
| 2026-04-28 17:17 | 39.76433 | -83.70663 | 3479 ft | 185 kts | 34° |
| 2026-04-28 17:17 | 39.77424 | -83.69591 | 3479 ft | 185 kts | 35° |
| 2026-04-28 17:17 | 39.78415 | -83.68507 | 3475 ft | 185 kts | 34° |
| 2026-04-28 17:17 | 39.79407 | -83.67434 | 3475 ft | 185 kts | 35° |
| 2026-04-28 17:18 | 39.80387 | -83.66362 | 3476 ft | 185 kts | 35° |
| 2026-04-28 17:18 | 39.81382 | -83.65284 | 3478 ft | 186 kts | 35° |
| 2026-04-28 17:18 | 39.82380 | -83.64195 | 3477 ft | 186 kts | 34° |
| 2026-04-28 17:18 | 39.83364 | -83.63120 | 3479 ft | 187 kts | 35° |
| 2026-04-28 17:19 | 39.84370 | -83.62022 | 3483 ft | 188 kts | 35° |
| 2026-04-28 17:19 | 39.85369 | -83.60936 | 3487 ft | 186 kts | 34° |
| 2026-04-28 17:19 | 39.86369 | -83.59850 | 3480 ft | 186 kts | 36° |
| 2026-04-28 17:19 | 39.87356 | -83.58765 | 3480 ft | 187 kts | 34° |
| 2026-04-28 17:20 | 39.88349 | -83.57684 | 3487 ft | 187 kts | 34° |
| 2026-04-28 17:20 | 39.89027 | -83.56946 | 3490 ft | 187 kts | 35° |
| 2026-04-28 17:20 | 39.90351 | -83.55501 | 3490 ft | 186 kts | 35° |
| 2026-04-28 17:20 | 39.91336 | -83.54414 | 3489 ft | 186 kts | 35° |
| 2026-04-28 17:21 | 39.92336 | -83.53328 | 3491 ft | 187 kts | 35° |
| 2026-04-28 17:21 | 39.93324 | -83.52251 | 3489 ft | 186 kts | 35° |
| 2026-04-28 17:21 | 39.94313 | -83.51165 | 3489 ft | 186 kts | 35° |
| 2026-04-28 17:22 | 39.96308 | -83.48985 | 3492 ft | 186 kts | 34° |
| 2026-04-28 17:22 | 39.97303 | -83.47890 | 3496 ft | 187 kts | 34° |
| 2026-04-28 17:22 | 39.98293 | -83.46806 | 3499 ft | 187 kts | 34° |
| 2026-04-28 17:23 | 40.00284 | -83.44630 | 3496 ft | 185 kts | 34° |
| 2026-04-28 17:23 | 40.01272 | -83.43541 | 3493 ft | 185 kts | 35° |
| 2026-04-28 17:23 | 40.02260 | -83.42461 | 3493 ft | 185 kts | 34° |
| 2026-04-28 17:23 | 40.03243 | -83.41375 | 3489 ft | 185 kts | 35° |
| 2026-04-28 17:24 | 40.04226 | -83.40302 | 3487 ft | 186 kts | 34° |
| 2026-04-28 17:24 | 40.05226 | -83.39205 | 3487 ft | 185 kts | 35° |
| 2026-04-28 17:24 | 40.06205 | -83.38123 | 3487 ft | 185 kts | 35° |
| 2026-04-28 17:24 | 40.07178 | -83.37046 | 3485 ft | 186 kts | 34° |
| 2026-04-28 17:25 | 40.08180 | -83.35953 | 3487 ft | 186 kts | 34° |
| 2026-04-28 17:25 | 40.10157 | -83.33704 | 3481 ft | 188 kts | 36° |
| 2026-04-28 17:25 | 40.11196 | -83.32656 | 3487 ft | 188 kts | 34° |
| 2026-04-28 17:26 | 40.12184 | -83.31533 | 3483 ft | 187 kts | 35° |
| 2026-04-28 17:26 | 40.13174 | -83.30444 | 3482 ft | 186 kts | 35° |
| 2026-04-28 17:26 | 40.14165 | -83.29362 | 3482 ft | 187 kts | 35° |
| 2026-04-28 17:26 | 40.15161 | -83.28246 | 3484 ft | 187 kts | 36° |
| 2026-04-28 17:27 | 40.16149 | -83.27164 | 3485 ft | 186 kts | 35° |
| 2026-04-28 17:27 | 40.17153 | -83.26059 | 3481 ft | 186 kts | 34° |
| 2026-04-28 17:27 | 40.18137 | -83.24966 | 3481 ft | 186 kts | 35° |
| 2026-04-28 17:27 | 40.19116 | -83.23880 | 3482 ft | 186 kts | 34° |
| 2026-04-28 17:28 | 40.20114 | -83.22786 | 3481 ft | 187 kts | 35° |
| 2026-04-28 17:28 | 40.22095 | -83.20596 | 3481 ft | 187 kts | 35° |
| 2026-04-28 17:28 | 40.23092 | -83.19499 | 3480 ft | 187 kts | 36° |
| 2026-04-28 17:29 | 40.24077 | -83.18397 | 3481 ft | 188 kts | 36° |
| 2026-04-28 17:29 | 40.25088 | -83.17287 | 3484 ft | 188 kts | 35° |
| 2026-04-28 17:29 | 40.26076 | -83.16184 | 3480 ft | 187 kts | 35° |
| 2026-04-28 17:30 | 40.28071 | -83.13977 | 3480 ft | 187 kts | 35° |
| 2026-04-28 17:30 | 40.30044 | -83.11781 | 3479 ft | 186 kts | 35° |
| 2026-04-28 17:30 | 40.31040 | -83.10673 | 3473 ft | 186 kts | 35° |
| 2026-04-28 17:31 | 40.32032 | -83.09578 | 3475 ft | 186 kts | 34° |
| 2026-04-28 17:31 | 40.34013 | -83.07380 | 3471 ft | 188 kts | 35° |
| 2026-04-28 17:32 | 40.36000 | -83.05168 | 3469 ft | 187 kts | 36° |
| 2026-04-28 17:32 | 40.36987 | -83.04076 | 3470 ft | 187 kts | 36° |
| 2026-04-28 17:32 | 40.37986 | -83.02959 | 3474 ft | 186 kts | 36° |
| 2026-04-28 17:32 | 40.38970 | -83.01861 | 3471 ft | 186 kts | 35° |
| 2026-04-28 17:33 | 40.39952 | -83.00771 | 3466 ft | 186 kts | 36° |
| 2026-04-28 17:33 | 40.40948 | -82.99654 | 3464 ft | 186 kts | 36° |
| 2026-04-28 17:33 | 40.41936 | -82.98556 | 3465 ft | 186 kts | 36° |
| 2026-04-28 17:33 | 40.42592 | -82.97832 | 3467 ft | 186 kts | 36° |
| 2026-04-28 17:34 | 40.43904 | -82.96359 | 3467 ft | 185 kts | 36° |
| 2026-04-28 17:34 | 40.44880 | -82.95267 | 3465 ft | 186 kts | 35° |
| 2026-04-28 17:34 | 40.45874 | -82.94154 | 3460 ft | 186 kts | 35° |
| 2026-04-28 17:34 | 40.46856 | -82.93068 | 3458 ft | 186 kts | 36° |
| 2026-04-28 17:35 | 40.47845 | -82.91959 | 3457 ft | 185 kts | 36° |
| 2026-04-28 17:35 | 40.48836 | -82.90852 | 3456 ft | 187 kts | 36° |
| 2026-04-28 17:35 | 40.49815 | -82.89758 | 3459 ft | 187 kts | 36° |
| 2026-04-28 17:35 | 40.50805 | -82.88651 | 3453 ft | 186 kts | 36° |
| 2026-04-28 17:36 | 40.51790 | -82.87546 | 3454 ft | 186 kts | 36° |
| 2026-04-28 17:36 | 40.52773 | -82.86443 | 3453 ft | 186 kts | 35° |
| 2026-04-28 17:36 | 40.53763 | -82.85332 | 3454 ft | 186 kts | 36° |
| 2026-04-28 17:36 | 40.54759 | -82.84220 | 3457 ft | 187 kts | 36° |
| 2026-04-28 17:37 | 40.55736 | -82.83118 | 3458 ft | 186 kts | 35° |
| 2026-04-28 17:37 | 40.56720 | -82.82018 | 3453 ft | 185 kts | 36° |
| 2026-04-28 17:37 | 40.57696 | -82.80922 | 3456 ft | 185 kts | 35° |
| 2026-04-28 17:37 | 40.58679 | -82.79808 | 3455 ft | 185 kts | 35° |
| 2026-04-28 17:38 | 40.59658 | -82.78721 | 3450 ft | 186 kts | 36° |
| 2026-04-28 17:38 | 40.60646 | -82.77614 | 3450 ft | 186 kts | 36° |
| 2026-04-28 17:38 | 40.61629 | -82.76500 | 3450 ft | 186 kts | 36° |
| 2026-04-28 17:38 | 40.62618 | -82.75394 | 3448 ft | 186 kts | 36° |
| 2026-04-28 17:39 | 40.63441 | -82.74054 | 3446 ft | 190 kts | 51° |
| 2026-04-28 17:39 | 40.64206 | -82.72615 | 3445 ft | 190 kts | 52° |
| 2026-04-28 17:39 | 40.65709 | -82.69746 | 3450 ft | 190 kts | 52° |
| 2026-04-28 17:40 | 40.66461 | -82.68301 | 3448 ft | 190 kts | 52° |
| 2026-04-28 17:40 | 40.67211 | -82.66859 | 3449 ft | 190 kts | 52° |
| 2026-04-28 17:40 | 40.67954 | -82.65432 | 3451 ft | 190 kts | 52° |
| 2026-04-28 17:40 | 40.68702 | -82.63989 | 3453 ft | 190 kts | 52° |
| 2026-04-28 17:41 | 40.69403 | -82.62516 | 3454 ft | 191 kts | 59° |
| 2026-04-28 17:41 | 40.70003 | -82.60923 | 3451 ft | 191 kts | 61° |
| 2026-04-28 17:41 | 40.70573 | -82.59353 | 3450 ft | 191 kts | 62° |
| 2026-04-28 17:41 | 40.71153 | -82.57764 | 3454 ft | 192 kts | 62° |
| 2026-04-28 17:42 | 40.71720 | -82.56191 | 3456 ft | 191 kts | 62° |
| 2026-04-28 17:42 | 40.72105 | -82.55120 | 3450 ft | 191 kts | 62° |
| 2026-04-28 17:42 | 40.72869 | -82.53024 | 3450 ft | 191 kts | 62° |
| 2026-04-28 17:42 | 40.73447 | -82.51439 | 3451 ft | 192 kts | 62° |
| 2026-04-28 17:43 | 40.74024 | -82.49865 | 3455 ft | 191 kts | 62° |
| 2026-04-28 17:43 | 40.74612 | -82.48262 | 3450 ft | 193 kts | 62° |
| 2026-04-28 17:43 | 40.75194 | -82.46687 | 3454 ft | 192 kts | 62° |
| 2026-04-28 17:43 | 40.75777 | -82.45081 | 3451 ft | 193 kts | 63° |
| 2026-04-28 17:44 | 40.76357 | -82.43492 | 3454 ft | 192 kts | 62° |
| 2026-04-28 17:44 | 40.77002 | -82.41977 | 3444 ft | 191 kts | 45° |
| 2026-04-28 17:44 | 40.78017 | -82.40856 | 3454 ft | 186 kts | 31° |
| 2026-04-28 17:44 | 40.79057 | -82.39831 | 3449 ft | 186 kts | 31° |
| 2026-04-28 17:45 | 40.80097 | -82.38817 | 3454 ft | 185 kts | 31° |
| 2026-04-28 17:45 | 40.81126 | -82.37793 | 3451 ft | 186 kts | 31° |